Time;durP1;ratioP1;P1;durP2;ratioP2;P2;SDS_P1;SDS_P2;PMS_P1;PMS_P2;Temp;Humidity;BMP_temperature;BMP_pressure;BME280_temperature;BME280_humidity;BME280_pressure;Samples;Min_cycle;Max_cycle;Signal;HPM_P1;HPM_P2
2022/01/23 00:01:53;;;;;;;11.98;9.13;;;9.30;79.30;;;;;;5030558;28;20038;-82
2022/01/23 00:04:19;;;;;;;12.55;8.65;;;9.30;79.30;;;;;;5030131;28;20041;-83
2022/01/23 00:06:46;;;;;;;13.95;10.18;;;9.30;79.30;;;;;;5030487;28;20033;-84
2022/01/23 00:09:14;;;;;;;12.02;9.15;;;9.30;79.30;;;;;;5010654;28;20109;-85
2022/01/23 00:11:47;;;;;;;12.50;9.98;;;9.30;79.30;;;;;;5005517;28;20030;-83
2022/01/23 00:19:42;;;;;;;12.93;9.50;;;9.30;79.30;;;;;;5006405;28;20038;-83
2022/01/23 00:22:10;;;;;;;12.35;9.30;;;9.30;79.30;;;;;;5030521;28;20475;-83
2022/01/23 00:32:49;;;;;;;12.80;9.82;;;9.30;79.30;;;;;;5030618;28;20048;-83
2022/01/23 00:35:15;;;;;;;12.13;9.52;;;9.30;79.30;;;;;;5012552;28;20360;-83
2022/01/23 00:37:41;;;;;;;11.93;9.93;;;9.30;79.40;;;;;;5034950;28;20036;-82
2022/01/23 00:40:08;;;;;;;13.23;9.77;;;9.20;79.40;;;;;;5017753;28;20465;-84
2022/01/23 00:42:35;;;;;;;12.95;10.52;;;9.20;79.30;;;;;;5017776;28;20044;-83
2022/01/23 00:45:25;;;;;;;13.52;10.68;;;9.20;79.40;;;;;;5014636;28;20493;-83
2022/01/23 00:47:46;;;;;;;12.55;9.93;;;9.30;79.40;;;;;;5034737;28;20504;-82
2022/01/23 00:50:12;;;;;;;12.55;9.43;;;9.30;79.30;;;;;;5017175;28;20033;-83
2022/01/23 00:52:38;;;;;;;12.20;9.65;;;9.30;79.30;;;;;;5017779;28;20390;-83
2022/01/23 00:55:04;;;;;;;12.95;9.98;;;9.30;79.30;;;;;;5034305;28;20037;-83
2022/01/23 00:57:33;;;;;;;11.65;9.68;;;9.20;79.30;;;;;;5017389;28;20036;-83
2022/01/23 01:00:06;;;;;;;12.70;9.90;;;9.30;79.40;;;;;;5034226;28;20045;-85
2022/01/23 01:02:32;;;;;;;13.75;10.23;;;9.30;79.40;;;;;;5017565;28;20033;-83
2022/01/23 01:04:59;;;;;;;12.95;10.10;;;9.20;79.30;;;;;;5033184;28;20036;-82
2022/01/23 01:07:25;;;;;;;13.70;10.23;;;9.20;79.30;;;;;;5016135;28;20079;-83
2022/01/23 01:09:53;;;;;;;14.32;10.77;;;9.20;79.30;;;;;;5015584;28;20038;-83
2022/01/23 01:12:24;;;;;;;12.35;9.45;;;9.20;79.40;;;;;;5016317;28;20068;-83
2022/01/23 01:30:05;;;;;;;12.32;9.75;;;9.30;79.40;;;;;;5033575;28;20167;-83
2022/01/23 01:31:23;;;;;;;12.73;10.18;;;9.20;79.30;;;;;;5033488;28;20528;-83
2022/01/23 01:36:46;;;;;;;12.77;9.77;;;9.20;79.40;;;;;;5033629;28;20017;-83
2022/01/23 01:39:06;;;;;;;13.13;10.35;;;9.20;79.40;;;;;;5032326;28;20573;-82
2022/01/23 01:41:38;;;;;;;13.25;9.88;;;9.20;79.40;;;;;;5043794;28;20034;-84
2022/01/23 01:44:04;;;;;;;12.18;9.65;;;9.20;79.50;;;;;;5032616;28;20041;-83
2022/01/23 01:46:53;;;;;;;13.05;9.98;;;9.20;79.40;;;;;;5017446;28;20053;-83
2022/01/23 01:49:27;;;;;;;13.95;10.85;;;9.20;79.40;;;;;;5032459;28;20079;-83
2022/01/23 01:51:56;;;;;;;13.30;10.07;;;9.20;79.40;;;;;;5031869;28;20045;-83
2022/01/23 01:54:24;;;;;;;14.07;10.55;;;9.20;79.40;;;;;;5032261;28;20034;-84
2022/01/23 01:57:05;;;;;;;13.77;10.93;;;9.20;79.40;;;;;;5013852;28;20462;-83
2022/01/23 02:08:29;;;;;;;12.18;9.57;;;9.10;79.30;;;;;;5048074;28;20384;-83
2022/01/23 02:11:09;;;;;;;13.38;10.13;;;9.10;79.40;;;;;;5044965;28;20061;-83
2022/01/23 02:56:49;;;;;;;13.15;10.75;;;9.10;79.50;;;;;;5012399;28;20038;-83
2022/01/23 02:59:27;;;;;;;13.65;10.45;;;9.10;79.50;;;;;;5023854;28;20029;-83
2022/01/23 03:02:10;;;;;;;13.93;10.65;;;9.10;79.50;;;;;;5016098;28;20029;-83
2022/01/23 03:05:02;;;;;;;13.15;10.32;;;9.10;79.50;;;;;;5018515;28;20386;-84
2022/01/23 03:07:56;;;;;;;13.35;10.82;;;9.10;79.40;;;;;;5031215;28;20493;-83
2022/01/23 03:10:28;;;;;;;13.65;11.00;;;9.10;79.50;;;;;;5015143;28;20116;-83
2022/01/23 03:29:24;;;;;;;14.10;11.05;;;9.00;79.40;;;;;;4988089;28;20040;-83
2022/01/23 03:34:17;;;;;;;15.05;11.30;;;9.10;79.60;;;;;;5031364;28;20053;-83
2022/01/23 03:36:44;;;;;;;14.00;10.80;;;9.10;79.60;;;;;;5014786;28;20025;-84
2022/01/23 03:39:10;;;;;;;13.85;10.73;;;9.10;79.60;;;;;;5014936;28;20466;-83
2022/01/23 03:41:38;;;;;;;13.05;9.95;;;9.00;79.50;;;;;;5015161;28;20033;-86
2022/01/23 03:44:08;;;;;;;13.70;10.95;;;9.10;79.50;;;;;;5031583;28;20378;-83
2022/01/23 03:51:49;;;;;;;13.00;10.10;;;9.00;79.50;;;;;;5028180;28;20113;-82
2022/01/23 03:54:15;;;;;;;13.05;10.10;;;9.10;79.50;;;;;;5025869;28;20121;-83
2022/01/23 03:56:42;;;;;;;14.90;10.27;;;9.00;79.50;;;;;;5002941;28;20121;-83
2022/01/23 03:59:08;;;;;;;15.32;10.90;;;9.00;79.50;;;;;;4998948;28;20125;-83
2022/01/23 04:01:34;;;;;;;14.07;10.75;;;9.00;79.50;;;;;;5014779;28;20492;-83
2022/01/23 04:04:03;;;;;;;13.52;10.43;;;9.10;79.50;;;;;;5015112;28;20056;-84
2022/01/23 04:06:48;;;;;;;13.52;10.55;;;9.10;79.50;;;;;;5030873;28;20490;-83
2022/01/23 04:09:14;;;;;;;13.68;10.52;;;9.10;79.60;;;;;;5031361;28;20033;-83
2022/01/23 04:11:40;;;;;;;13.60;10.70;;;9.00;79.40;;;;;;5032922;28;20021;-84
2022/01/23 04:14:09;;;;;;;15.07;10.90;;;9.00;79.40;;;;;;5018018;28;20053;-86
2022/01/23 04:17:12;;;;;;;12.73;10.18;;;9.00;79.50;;;;;;5019839;28;20034;-82
2022/01/23 04:59:54;;;;;;;11.90;9.63;;;9.00;79.50;;;;;;5048539;28;20523;-82
2022/01/23 05:05:37;;;;;;;13.15;10.52;;;9.00;79.60;;;;;;5008162;28;20107;-83
2022/01/23 05:08:41;;;;;;;12.32;9.65;;;9.00;79.50;;;;;;4972708;28;20376;-84
2022/01/23 05:11:26;;;;;;;12.40;9.20;;;8.90;79.50;;;;;;4973000;28;20113;-83
2022/01/23 05:14:13;;;;;;;12.57;9.57;;;8.90;79.50;;;;;;5004007;28;20053;-83
2022/01/23 05:16:39;;;;;;;14.15;10.73;;;8.90;79.50;;;;;;5015993;28;20474;-85
2022/01/23 05:19:06;;;;;;;14.18;10.13;;;8.90;79.60;;;;;;5033090;28;20078;-83
2022/01/23 05:24:21;;;;;;;14.07;10.60;;;8.90;79.60;;;;;;5033498;28;20148;-84
2022/01/23 05:26:47;;;;;;;12.38;9.85;;;8.90;79.50;;;;;;5016586;28;20030;-83
2022/01/23 05:29:14;;;;;;;13.15;10.00;;;8.90;79.50;;;;;;5015924;28;20033;-85
2022/01/23 05:31:40;;;;;;;13.05;9.75;;;9.00;79.60;;;;;;5016283;28;20028;-83
2022/01/23 05:34:06;;;;;;;13.40;9.52;;;9.00;79.60;;;;;;5029234;28;20037;-83
2022/01/23 05:36:33;;;;;;;12.82;10.15;;;9.00;79.60;;;;;;5029980;28;20033;-89
2022/01/23 05:38:59;;;;;;;12.55;9.95;;;9.00;79.60;;;;;;5032172;28;20028;-82
2022/01/23 05:41:27;;;;;;;12.68;9.52;;;9.00;79.60;;;;;;5032411;28;20032;-83
2022/01/23 05:43:53;;;;;;;13.07;9.70;;;9.00;79.50;;;;;;5014782;28;20057;-84
2022/01/23 05:46:19;;;;;;;12.88;10.00;;;9.00;79.50;;;;;;5002913;28;20048;-84
2022/01/23 05:49:01;;;;;;;13.43;10.27;;;9.00;79.50;;;;;;5019042;28;20037;-84
2022/01/23 05:51:37;;;;;;;13.95;10.57;;;9.00;79.50;;;;;;5018021;28;20033;-83
2022/01/23 05:54:03;;;;;;;12.48;9.43;;;9.00;79.50;;;;;;5033303;28;20044;-85
2022/01/23 05:57:03;;;;;;;13.55;10.02;;;8.90;79.50;;;;;;5033018;28;20021;-83
2022/01/23 05:59:45;;;;;;;12.98;9.43;;;8.90;79.50;;;;;;5039194;28;20034;-86
2022/01/23 06:02:11;;;;;;;13.88;10.27;;;9.00;79.50;;;;;;5026067;28;20032;-84
2022/01/23 06:04:38;;;;;;;13.27;10.27;;;8.90;79.50;;;;;;5016463;28;20135;-83
2022/01/23 06:07:13;;;;;;;14.73;10.55;;;8.90;79.50;;;;;;5018056;28;20018;-83
2022/01/23 06:09:48;;;;;;;11.73;9.05;;;8.90;79.50;;;;;;5032581;28;20030;-83
2022/01/23 06:12:14;;;;;;;12.38;9.73;;;8.90;79.50;;;;;;5016412;28;20029;-84
2022/01/23 06:14:40;;;;;;;13.05;10.07;;;8.90;79.50;;;;;;5031975;28;20052;-83
2022/01/23 06:17:06;;;;;;;13.80;10.23;;;8.90;79.50;;;;;;5029043;28;20018;-85
2022/01/23 06:19:50;;;;;;;13.15;10.02;;;8.90;79.50;;;;;;5032850;28;20036;-83
2022/01/23 06:22:34;;;;;;;11.80;9.07;;;8.90;79.50;;;;;;5045586;28;20068;-92
2022/01/23 06:25:20;;;;;;;13.30;10.07;;;8.90;80.10;;;;;;5032122;28;20564;-83
2022/01/23 06:28:08;;;;;;;12.55;9.57;;;8.90;79.50;;;;;;5018326;28;20025;-83
2022/01/23 06:30:36;;;;;;;13.63;10.43;;;8.90;79.50;;;;;;5032504;28;20529;-84
2022/01/23 06:33:05;;;;;;;13.50;10.35;;;8.90;79.60;;;;;;5042886;28;20037;-83
2022/01/23 06:35:32;;;;;;;13.38;9.90;;;8.90;79.60;;;;;;5032709;28;20045;-85
2022/01/23 06:37:58;;;;;;;12.63;9.57;;;8.90;79.60;;;;;;5015541;28;20018;-83
2022/01/23 06:40:24;;;;;;;13.73;9.98;;;8.90;79.60;;;;;;5033296;28;20075;-83
2022/01/23 06:43:08;;;;;;;12.88;10.35;;;8.90;79.60;;;;;;5032382;28;20091;-83
2022/01/23 06:45:46;;;;;;;12.38;9.38;;;8.90;79.50;;;;;;5017638;28;20041;-83
2022/01/23 06:48:12;;;;;;;12.13;9.73;;;8.90;79.50;;;;;;5015355;28;20029;-86
2022/01/23 06:50:39;;;;;;;13.73;10.25;;;8.90;79.50;;;;;;5042225;28;20039;-83
2022/01/23 06:53:05;;;;;;;14.52;10.43;;;8.80;79.50;;;;;;5028641;28;20029;-83
2022/01/23 06:55:31;;;;;;;15.07;11.00;;;8.90;79.60;;;;;;4980158;28;20037;-83
2022/01/23 06:57:58;;;;;;;12.68;9.70;;;8.80;79.50;;;;;;5047420;28;20025;-83
2022/01/23 07:00:24;;;;;;;12.15;9.77;;;8.90;79.50;;;;;;5017402;28;20461;-83
2022/01/23 07:03:19;;;;;;;13.57;10.10;;;8.80;79.50;;;;;;5031607;28;20156;-83
2022/01/23 07:06:07;;;;;;;12.73;9.82;;;8.80;79.40;;;;;;5013862;28;20029;-83
2022/01/23 07:08:53;;;;;;;11.93;9.07;;;8.80;79.50;;;;;;5001501;28;20500;-83
2022/01/23 07:11:42;;;;;;;12.40;9.07;;;8.80;79.50;;;;;;5013050;28;20034;-83
2022/01/23 07:14:31;;;;;;;12.40;9.52;;;8.80;79.50;;;;;;5020156;28;20065;-82
2022/01/23 07:17:00;;;;;;;12.27;9.25;;;8.80;79.50;;;;;;5013911;28;20056;-86
2022/01/23 07:19:44;;;;;;;13.13;9.13;;;8.80;79.50;;;;;;5032132;28;20544;-82
2022/01/23 07:22:12;;;;;;;11.43;8.73;;;8.80;79.50;;;;;;5031159;28;20096;-83
2022/01/23 07:24:38;;;;;;;12.98;9.90;;;8.80;79.60;;;;;;5014767;28;20124;-83
2022/01/23 07:27:13;;;;;;;12.85;9.60;;;8.80;79.60;;;;;;5014749;28;20025;-86
2022/01/23 07:29:41;;;;;;;13.43;10.23;;;8.80;79.60;;;;;;5015320;28;20422;-84
2022/01/23 07:32:09;;;;;;;13.23;10.07;;;8.80;79.60;;;;;;5014887;28;20033;-84
2022/01/23 07:34:36;;;;;;;12.32;9.32;;;8.80;79.60;;;;;;5029860;28;20037;-83
2022/01/23 07:37:04;;;;;;;12.07;8.93;;;8.80;79.60;;;;;;5027133;28;20099;-83
2022/01/23 07:39:53;;;;;;;11.82;9.20;;;8.80;79.60;;;;;;5018600;28;20766;-85
2022/01/23 07:42:25;;;;;;;13.35;9.32;;;8.80;79.50;;;;;;4992728;28;20030;-87
2022/01/23 07:45:12;;;;;;;11.88;9.13;;;8.80;79.50;;;;;;5023237;28;20038;-84
2022/01/23 07:47:57;;;;;;;12.25;9.10;;;8.80;79.50;;;;;;5044450;28;20430;-86
2022/01/23 07:50:49;;;;;;;12.65;9.50;;;8.80;79.50;;;;;;5030051;28;20080;-84
2022/01/23 07:53:35;;;;;;;12.65;9.40;;;8.80;79.50;;;;;;5021248;28;20125;-85
2022/01/23 07:56:06;;;;;;;12.57;9.52;;;8.70;79.50;;;;;;5013937;28;20018;-83
2022/01/23 07:58:50;;;;;;;12.45;9.02;;;8.70;79.50;;;;;;5041763;28;20117;-84
2022/01/23 08:01:55;;;;;;;12.48;9.23;;;8.80;79.60;;;;;;4996262;28;20041;-83
2022/01/23 08:04:56;;;;;;;12.20;9.43;;;8.80;79.50;;;;;;4997693;28;20046;-84
2022/01/23 08:07:31;;;;;;;12.07;9.25;;;8.70;79.50;;;;;;5024997;28;20037;-84
2022/01/23 08:10:16;;;;;;;10.88;8.35;;;8.70;79.50;;;;;;5030483;28;20068;-84
2022/01/23 08:12:42;;;;;;;12.30;9.05;;;8.70;79.50;;;;;;5012455;28;20029;-85
2022/01/23 08:15:09;;;;;;;13.20;10.02;;;8.70;79.60;;;;;;5013240;28;20300;-84
2022/01/23 08:17:36;;;;;;;13.02;9.43;;;8.70;79.60;;;;;;5030461;28;20075;-85
2022/01/23 08:20:04;;;;;;;12.90;9.25;;;8.70;79.60;;;;;;5013955;28;20040;-84
2022/01/23 08:22:33;;;;;;;11.10;8.75;;;8.70;79.60;;;;;;5030180;28;20028;-84
2022/01/23 08:25:01;;;;;;;12.30;9.98;;;8.80;79.70;;;;;;5012639;28;20029;-83
2022/01/23 08:27:30;;;;;;;12.10;9.35;;;8.70;79.60;;;;;;5014073;28;20033;-85
2022/01/23 08:29:58;;;;;;;13.45;9.85;;;8.80;79.60;;;;;;5046041;28;20034;-82
2022/01/23 08:32:25;;;;;;;12.20;9.18;;;8.80;79.60;;;;;;5030615;28;20045;-82
2022/01/23 08:34:58;;;;;;;12.93;9.00;;;8.80;79.60;;;;;;5013316;28;20037;-82
2022/01/23 08:37:27;;;;;;;11.25;8.38;;;8.80;79.60;;;;;;5028322;28;20152;-83
2022/01/23 08:40:01;;;;;;;12.05;9.32;;;8.80;79.60;;;;;;5012387;28;20128;-83
2022/01/23 08:42:29;;;;;;;11.35;8.82;;;8.80;79.60;;;;;;5037695;28;20597;-82
2022/01/23 08:44:57;;;;;;;12.75;9.40;;;8.80;79.60;;;;;;5020243;28;20069;-82
2022/01/23 08:47:40;;;;;;;13.65;9.77;;;8.80;79.60;;;;;;5044499;28;20036;-82
2022/01/23 08:50:07;;;;;;;12.57;9.35;;;8.80;79.60;;;;;;5030075;28;20072;-87
2022/01/23 08:52:37;;;;;;;12.30;9.05;;;8.80;79.60;;;;;;5030692;28;20025;-82
2022/01/23 08:55:03;;;;;;;12.15;9.20;;;8.80;79.60;;;;;;5031204;28;20046;-85
2022/01/23 08:57:30;;;;;;;11.55;9.18;;;8.80;79.60;;;;;;5024520;28;20049;-84
2022/01/23 08:59:55;;;;;;;12.00;9.35;;;8.80;79.60;;;;;;5032075;28;20084;-81
2022/01/23 09:02:21;;;;;;;12.15;9.30;;;8.80;79.60;;;;;;5033244;28;20037;-82
2022/01/23 09:04:47;;;;;;;11.90;8.65;;;8.80;79.60;;;;;;5014692;28;20034;-84
2022/01/23 09:07:14;;;;;;;12.40;9.23;;;8.80;79.60;;;;;;5033488;28;20382;-80
2022/01/23 09:09:40;;;;;;;11.75;9.02;;;8.80;79.60;;;;;;5016782;28;20030;-81
2022/01/23 09:12:26;;;;;;;12.20;9.27;;;8.80;79.60;;;;;;5032822;28;21298;-83
2022/01/23 09:14:52;;;;;;;11.35;8.38;;;8.80;79.60;;;;;;5029536;28;20053;-82
2022/01/23 09:17:18;;;;;;;11.55;8.70;;;8.80;79.60;;;;;;4996761;28;20038;-83
2022/01/23 09:19:47;;;;;;;11.10;8.23;;;8.80;79.60;;;;;;5014225;28;20025;-83
2022/01/23 09:22:13;;;;;;;11.13;8.30;;;8.80;79.60;;;;;;4997087;28;20026;-84
2022/01/23 09:24:40;;;;;;;11.32;8.63;;;8.80;79.60;;;;;;5024514;28;20057;-85
2022/01/23 09:27:13;;;;;;;11.18;8.00;;;8.80;79.60;;;;;;5016671;28;20526;-83
2022/01/23 09:29:42;;;;;;;11.52;8.77;;;8.90;79.70;;;;;;5016702;28;20478;-84
2022/01/23 09:32:13;;;;;;;11.93;8.77;;;8.90;79.60;;;;;;5015972;28;20029;-83
2022/01/23 09:34:41;;;;;;;11.65;9.07;;;8.90;79.70;;;;;;5032762;28;20036;-83
2022/01/23 09:37:09;;;;;;;11.43;8.77;;;8.90;79.60;;;;;;5016123;28;20045;-87
2022/01/23 09:39:38;;;;;;;11.73;8.68;;;8.90;79.70;;;;;;5031769;28;20087;-83
2022/01/23 09:42:15;;;;;;;10.70;8.75;;;8.80;79.60;;;;;;5016194;28;20030;-83
2022/01/23 09:44:51;;;;;;;11.02;7.90;;;8.90;79.70;;;;;;5016152;28;20041;-82
2022/01/23 09:47:21;;;;;;;11.13;8.30;;;8.90;79.70;;;;;;5016163;28;20108;-86
2022/01/23 09:49:49;;;;;;;11.85;8.65;;;8.90;79.70;;;;;;5015260;28;20087;-83
2022/01/23 09:52:16;;;;;;;11.68;9.02;;;8.90;79.70;;;;;;5037776;28;20025;-84
2022/01/23 09:54:45;;;;;;;10.52;8.30;;;8.90;79.70;;;;;;5041396;28;20470;-82
2022/01/23 09:57:12;;;;;;;11.20;8.68;;;8.90;79.70;;;;;;5020572;28;20061;-82
2022/01/23 09:59:40;;;;;;;10.18;7.82;;;8.90;79.70;;;;;;5016216;28;20028;-82
2022/01/23 10:02:08;;;;;;;10.73;8.23;;;8.90;79.70;;;;;;5016456;28;20036;-82
2022/01/23 10:04:34;;;;;;;11.88;8.93;;;8.90;79.70;;;;;;5032119;28;20045;-83
2022/01/23 10:06:59;;;;;;;10.95;8.38;;;8.90;79.70;;;;;;5032147;28;20397;-82
2022/01/23 10:09:31;;;;;;;10.85;8.52;;;8.90;79.70;;;;;;5015476;28;20033;-83
2022/01/23 10:11:57;;;;;;;10.90;8.15;;;9.00;79.70;;;;;;5015480;28;20166;-82
2022/01/23 10:14:23;;;;;;;11.73;9.02;;;9.00;79.70;;;;;;5031607;28;20072;-84
2022/01/23 10:16:50;;;;;;;11.77;8.75;;;9.00;79.70;;;;;;5032291;28;20485;-82
2022/01/23 10:19:18;;;;;;;11.50;8.35;;;9.00;79.70;;;;;;5015801;28;20109;-86
2022/01/23 10:21:45;;;;;;;11.88;9.13;;;9.00;79.70;;;;;;5032380;28;20037;-82
2022/01/23 10:24:13;;;;;;;10.93;7.85;;;9.00;80.30;;;;;;5031850;28;20252;-83
2022/01/23 10:26:54;;;;;;;10.73;8.10;;;9.00;79.70;;;;;;5032101;28;20064;-83
2022/01/23 10:29:35;;;;;;;10.95;8.20;;;9.00;79.70;;;;;;5015682;28;20589;-83
2022/01/23 10:32:21;;;;;;;10.43;7.75;;;9.00;79.70;;;;;;5032095;28;20462;-83
2022/01/23 10:34:51;;;;;;;9.93;7.43;;;9.00;79.70;;;;;;5015391;28;20061;-82
2022/01/23 10:37:34;;;;;;;10.43;7.72;;;9.10;79.70;;;;;;5031549;28;20112;-82
2022/01/23 10:40:13;;;;;;;10.77;7.78;;;9.00;79.70;;;;;;5028111;28;20032;-82
2022/01/23 10:48:43;;;;;;;9.82;7.30;;;9.10;79.70;;;;;;5010263;28;20042;-82
2022/01/23 10:51:39;;;;;;;9.65;7.20;;;9.10;79.70;;;;;;5027729;28;20375;-83
2022/01/23 10:54:17;;;;;;;10.55;7.90;;;9.10;79.80;;;;;;5031078;28;20076;-82
2022/01/23 10:57:08;;;;;;;9.60;7.45;;;9.10;79.60;;;;;;5015262;28;20470;-82
2022/01/23 10:59:49;;;;;;;10.00;7.63;;;9.10;79.70;;;;;;5031245;28;20095;-84
2022/01/23 11:02:24;;;;;;;9.95;7.40;;;9.10;79.70;;;;;;5027888;28;20558;-84
2022/01/23 11:05:00;;;;;;;10.80;8.30;;;9.10;79.70;;;;;;5027882;28;20056;-82
2022/01/23 11:07:29;;;;;;;11.52;8.60;;;9.10;79.70;;;;;;5028217;28;20030;-82
2022/01/23 11:10:22;;;;;;;10.52;8.10;;;9.20;79.70;;;;;;5027782;28;20050;-87
2022/01/23 11:18:15;;;;;;;9.90;7.22;;;9.20;79.70;;;;;;5030623;28;20037;-81
2022/01/23 11:20:48;;;;;;;10.10;7.25;;;9.20;79.60;;;;;;5029724;28;20529;-84
2022/01/23 11:23:39;;;;;;;9.98;7.53;;;9.20;79.60;;;;;;5030163;28;20080;-83
2022/01/23 11:26:12;;;;;;;9.90;7.63;;;9.30;79.80;;;;;;5046680;28;20091;-86
2022/01/23 11:28:56;;;;;;;10.85;8.05;;;9.20;79.60;;;;;;5030790;28;20067;-83
2022/01/23 11:31:24;;;;;;;9.73;6.95;;;9.30;79.70;;;;;;5014954;28;20106;-83
2022/01/23 11:33:51;;;;;;;9.70;6.95;;;9.30;79.60;;;;;;5030973;28;20025;-82
2022/01/23 11:36:21;;;;;;;8.95;6.80;;;9.30;79.60;;;;;;5030631;28;20033;-83
2022/01/23 11:38:54;;;;;;;9.38;7.03;;;9.30;79.60;;;;;;5030842;28;20034;-83
2022/01/23 11:55:07;;;;;;;9.02;6.68;;;9.40;79.60;;;;;;5029923;28;20128;-84
2022/01/23 11:57:45;;;;;;;8.85;6.38;;;9.40;79.50;;;;;;5014118;28;20018;-81
2022/01/23 12:00:32;;;;;;;8.75;6.50;;;9.50;79.70;;;;;;5021948;28;20056;-82
2022/01/23 12:03:05;;;;;;;8.35;6.30;;;9.40;79.70;;;;;;5020157;28;20030;-90
2022/01/23 12:05:32;;;;;;;8.70;6.13;;;9.50;79.60;;;;;;5034721;28;20037;-86
2022/01/23 12:08:34;;;;;;;7.38;5.75;;;9.50;79.60;;;;;;5035693;28;20049;-83
2022/01/23 12:13:57;;;;;;;8.57;5.82;;;9.50;79.60;;;;;;5026707;28;20128;-82
2022/01/23 12:17:06;;;;;;;8.95;5.90;;;9.50;79.50;;;;;;5028767;28;20033;-85
2022/01/23 12:19:47;;;;;;;7.55;5.30;;;9.50;79.60;;;;;;5028843;28;20067;-84
2022/01/23 12:22:54;;;;;;;7.43;5.55;;;9.50;79.50;;;;;;5013970;28;20022;-85
2022/01/23 12:25:27;;;;;;;7.78;5.32;;;9.50;79.70;;;;;;4991896;28;20042;-86
2022/01/23 12:28:17;;;;;;;7.25;5.55;;;9.60;79.50;;;;;;4961011;28;20034;-84
2022/01/23 12:30:45;;;;;;;7.72;5.60;;;9.60;79.70;;;;;;5006644;28;20542;-85
2022/01/23 12:33:31;;;;;;;7.07;4.95;;;9.60;79.50;;;;;;5015183;28;20030;-84
2022/01/23 12:36:14;;;;;;;6.80;4.60;;;9.60;79.60;;;;;;5038650;28;20041;-85
2022/01/23 12:38:53;;;;;;;7.50;5.25;;;9.60;79.50;;;;;;5038650;28;20029;-86
2022/01/23 12:41:36;;;;;;;6.88;4.80;;;9.60;79.50;;;;;;5022492;28;20534;-85
2022/01/23 12:44:29;;;;;;;6.00;4.32;;;9.70;79.60;;;;;;5021757;28;20029;-84
2022/01/23 12:46:59;;;;;;;6.30;4.78;;;9.70;79.50;;;;;;5034694;28;20112;-81
2022/01/23 12:49:30;;;;;;;5.93;4.45;;;9.70;79.50;;;;;;5017367;28;20045;-81
2022/01/23 12:52:09;;;;;;;6.38;4.72;;;9.70;79.50;;;;;;5017826;28;20024;-84
2022/01/23 12:54:47;;;;;;;6.15;4.35;;;9.70;79.60;;;;;;5034324;28;20076;-83
2022/01/23 12:57:19;;;;;;;6.07;4.15;;;9.70;79.60;;;;;;5017400;28;20060;-83
2022/01/23 12:59:57;;;;;;;6.32;4.28;;;9.70;79.50;;;;;;5033884;28;20020;-83
2022/01/23 13:02:27;;;;;;;5.55;3.95;;;9.80;79.60;;;;;;5034002;28;20040;-80
2022/01/23 13:04:55;;;;;;;6.10;4.10;;;9.80;79.50;;;;;;5033628;28;20092;-82
2022/01/23 13:08:29;;;;;;;5.90;3.90;;;9.80;79.50;;;;;;5016352;28;20059;-82
2022/01/23 13:18:33;;;;;;;5.53;3.80;;;9.80;79.40;;;;;;5049345;28;20116;-82
2022/01/23 13:32:28;;;;;;;5.13;3.28;;;9.90;79.50;;;;;;5012779;28;20088;-82
2022/01/23 13:35:01;;;;;;;5.03;3.17;;;9.90;79.40;;;;;;5007793;28;20029;-79
2022/01/23 13:37:33;;;;;;;4.53;3.05;;;9.90;79.40;;;;;;5015176;28;20026;-82
2022/01/23 13:40:05;;;;;;;4.13;2.90;;;9.90;79.40;;;;;;5048984;28;20071;-81
2022/01/23 13:59:55;;;;;;;3.60;2.55;;;10.00;79.30;;;;;;5031226;28;20056;-85
2022/01/23 14:02:42;;;;;;;4.45;2.70;;;10.00;79.30;;;;;;5015638;28;20067;-83
2022/01/23 14:05:13;;;;;;;4.10;2.85;;;10.00;79.50;;;;;;5048965;28;20046;-82
2022/01/23 14:07:45;;;;;;;3.90;2.60;;;10.00;79.30;;;;;;5043856;28;20034;-80
2022/01/23 14:10:11;;;;;;;4.05;2.78;;;10.10;79.40;;;;;;5017838;28;20056;-82
2022/01/23 14:12:37;;;;;;;3.38;2.47;;;10.10;79.30;;;;;;5014669;28;20076;-84
2022/01/23 14:15:13;;;;;;;4.10;2.70;;;10.10;79.30;;;;;;5015062;28;20381;-82
2022/01/23 14:17:40;;;;;;;3.58;2.65;;;10.10;79.30;;;;;;5015339;28;20036;-85
2022/01/23 14:20:10;;;;;;;4.10;2.75;;;10.10;79.30;;;;;;5049407;28;20026;-84
2022/01/23 14:22:39;;;;;;;4.22;2.78;;;10.10;79.20;;;;;;5033397;28;20037;-86
2022/01/23 14:25:18;;;;;;;3.97;2.63;;;10.10;79.20;;;;;;5015939;28;20057;-86
2022/01/23 14:28:06;;;;;;;4.50;2.90;;;10.10;79.20;;;;;;5034940;28;20025;-85
2022/01/23 14:30:32;;;;;;;4.07;2.80;;;10.10;79.20;;;;;;5020166;28;20040;-84
2022/01/23 14:33:10;;;;;;;3.80;2.50;;;10.10;79.10;;;;;;5018358;28;20056;-84
2022/01/23 14:35:35;;;;;;;3.60;2.58;;;10.10;79.20;;;;;;5034864;28;20083;-85
2022/01/23 14:38:16;;;;;;;3.33;2.35;;;10.10;79.10;;;;;;5033220;28;20026;-81
2022/01/23 14:40:59;;;;;;;3.78;2.55;;;10.10;79.20;;;;;;5032805;28;20038;-82
2022/01/23 14:43:54;;;;;;;4.20;2.90;;;10.20;79.20;;;;;;5048045;28;20108;-81
2022/01/23 14:46:20;;;;;;;3.40;2.28;;;10.20;79.20;;;;;;5015014;28;20116;-81
2022/01/23 14:48:49;;;;;;;3.45;2.40;;;10.20;79.10;;;;;;5013398;28;20113;-85
2022/01/23 14:51:20;;;;;;;3.55;2.40;;;10.20;79.10;;;;;;5017213;28;20026;-80
2022/01/23 14:53:48;;;;;;;3.65;2.65;;;10.10;79.10;;;;;;5039124;28;20038;-80
2022/01/23 14:56:14;;;;;;;4.78;2.63;;;10.20;79.10;;;;;;5028091;28;20028;-82
2022/01/23 14:58:42;;;;;;;3.38;2.55;;;10.10;79.10;;;;;;5020677;28;20048;-79
2022/01/23 15:01:11;;;;;;;3.55;2.40;;;10.20;79.10;;;;;;5004600;28;20026;-79
2022/01/23 15:03:41;;;;;;;3.63;2.53;;;10.20;79.10;;;;;;5028296;28;20108;-80
2022/01/23 15:06:07;;;;;;;3.50;2.42;;;10.20;79.10;;;;;;5012466;28;20633;-80
2022/01/23 15:08:37;;;;;;;3.75;2.50;;;10.20;79.10;;;;;;5027326;28;20104;-80
2022/01/23 15:11:03;;;;;;;2.97;2.38;;;10.20;79.10;;;;;;5026501;28;20545;-80
2022/01/23 15:13:30;;;;;;;2.70;2.08;;;10.20;79.10;;;;;;5028865;28;20482;-82
2022/01/23 15:15:58;;;;;;;3.28;2.20;;;10.20;79.10;;;;;;5014305;28;20025;-80
2022/01/23 15:18:25;;;;;;;3.17;2.28;;;10.20;79.10;;;;;;5009864;28;20034;-82
2022/01/23 15:20:51;;;;;;;2.67;2.10;;;10.20;79.00;;;;;;4995723;28;20048;-80
2022/01/23 15:23:17;;;;;;;2.85;2.10;;;10.20;79.00;;;;;;5021941;28;20136;-80
2022/01/23 15:25:46;;;;;;;2.38;2.00;;;10.20;79.10;;;;;;5028801;28;20478;-79
2022/01/23 15:28:13;;;;;;;3.30;2.40;;;10.20;79.00;;;;;;5014856;28;20033;-87
2022/01/23 15:30:39;;;;;;;2.85;2.03;;;10.20;79.00;;;;;;5003154;28;20041;-80
2022/01/23 15:33:08;;;;;;;2.88;2.20;;;10.20;79.10;;;;;;5030693;28;20105;-79
2022/01/23 15:35:36;;;;;;;2.83;2.10;;;10.20;79.10;;;;;;5047425;28;20030;-81
2022/01/23 15:38:03;;;;;;;3.03;2.10;;;10.20;79.10;;;;;;5031056;28;20029;-79
2022/01/23 15:40:29;;;;;;;3.10;2.10;;;10.20;79.10;;;;;;5024344;28;20466;-80
2022/01/23 15:42:57;;;;;;;2.65;1.90;;;10.20;79.10;;;;;;4994247;28;20368;-80
2022/01/23 15:45:24;;;;;;;3.13;2.17;;;10.20;79.10;;;;;;5036686;28;20041;-81
2022/01/23 15:47:51;;;;;;;2.58;2.10;;;10.20;79.10;;;;;;5013950;28;20018;-81
2022/01/23 15:50:19;;;;;;;3.10;2.08;;;10.20;79.10;;;;;;5010984;28;20037;-81
2022/01/23 15:52:46;;;;;;;2.65;1.98;;;10.20;79.10;;;;;;5011575;28;20026;-80
2022/01/23 15:55:13;;;;;;;2.08;1.80;;;10.20;79.10;;;;;;5045146;28;20025;-80
2022/01/23 15:57:40;;;;;;;2.67;2.17;;;10.20;79.10;;;;;;5030052;28;20079;-82
2022/01/23 16:00:09;;;;;;;2.30;1.88;;;10.20;79.10;;;;;;5014200;28;20017;-80
2022/01/23 16:02:38;;;;;;;3.05;2.20;;;10.20;79.10;;;;;;5029301;28;20037;-79
2022/01/23 16:05:05;;;;;;;2.35;1.77;;;10.20;79.10;;;;;;5013985;28;20489;-81
2022/01/23 16:07:31;;;;;;;2.50;1.98;;;10.20;79.10;;;;;;5019469;28;20043;-80
2022/01/23 16:09:57;;;;;;;2.80;2.10;;;10.20;79.10;;;;;;5036903;28;20025;-79
2022/01/23 16:12:23;;;;;;;3.28;2.13;;;10.20;79.10;;;;;;5052772;28;20124;-79
2022/01/23 16:14:49;;;;;;;3.47;2.17;;;10.20;79.10;;;;;;5036320;28;20061;-80
2022/01/23 16:17:16;;;;;;;3.22;2.20;;;10.20;79.10;;;;;;5036484;28;20535;-86
2022/01/23 16:19:42;;;;;;;2.90;2.22;;;10.20;79.10;;;;;;5036209;28;20032;-79
2022/01/23 16:22:13;;;;;;;3.42;2.45;;;10.20;79.10;;;;;;5036435;28;20126;-84
2022/01/23 16:24:40;;;;;;;4.00;2.35;;;10.10;79.10;;;;;;5021002;28;20037;-79
2022/01/23 16:27:06;;;;;;;3.22;2.20;;;10.10;79.10;;;;;;5053184;28;20038;-79
2022/01/23 16:29:32;;;;;;;2.65;2.00;;;10.10;79.10;;;;;;5036367;28;20521;-81
2022/01/23 16:31:59;;;;;;;3.28;2.30;;;10.20;79.10;;;;;;5053027;28;20032;-79
2022/01/23 16:34:28;;;;;;;3.38;2.42;;;10.10;79.10;;;;;;5036789;28;20120;-83
2022/01/23 16:36:55;;;;;;;2.95;1.95;;;10.10;79.70;;;;;;5017015;28;20021;-80
2022/01/23 16:39:29;;;;;;;2.30;2.10;;;10.10;79.10;;;;;;5017255;28;20026;-79
2022/01/23 16:41:55;;;;;;;2.85;2.10;;;10.10;79.20;;;;;;5032082;28;20037;-78
2022/01/23 16:44:25;;;;;;;2.72;2.10;;;10.10;79.10;;;;;;5023465;28;20158;-79
2022/01/23 16:46:53;;;;;;;3.30;2.33;;;10.10;79.10;;;;;;5039069;28;20037;-79
2022/01/23 16:49:25;;;;;;;3.28;2.20;;;10.10;79.10;;;;;;5021473;28;20051;-79
2022/01/23 16:51:52;;;;;;;2.95;2.30;;;10.10;79.10;;;;;;5037410;28;20489;-79